createdAt,value
2019-03-17T00:02:14.207Z,9.9
2019-03-17T00:07:19.716Z,9.9
2019-03-17T00:12:24.860Z,9.8
2019-03-17T00:17:30.715Z,9.8
2019-03-17T00:22:35.893Z,9.7
2019-03-17T00:27:41.420Z,9.8
2019-03-17T00:32:46.933Z,9.8
2019-03-17T00:37:52.309Z,9.9
2019-03-17T00:42:57.363Z,9.9
2019-03-17T00:47:57.623Z,10
2019-03-17T00:53:02.738Z,10.1
2019-03-17T00:58:08.066Z,10
2019-03-17T01:03:13.345Z,10
2019-03-17T01:08:18.652Z,10
2019-03-17T01:13:23.745Z,9.8
2019-03-17T01:18:27.647Z,9.7
2019-03-17T01:23:32.751Z,9.7
2019-03-17T01:28:37.881Z,9.6
2019-03-17T01:33:43.047Z,9.5
2019-03-17T01:38:48.592Z,9.4
2019-03-17T01:43:53.747Z,9.3
2019-03-17T01:48:58.940Z,9.3
2019-03-17T01:54:04.097Z,9.3
2019-03-17T01:59:09.232Z,9.3
2019-03-17T02:04:14.540Z,9.3
2019-03-17T02:09:19.631Z,9.2
2019-03-17T02:14:24.775Z,9.2
2019-03-17T02:19:30.319Z,9.2
2019-03-17T02:24:35.428Z,9.2
2019-03-17T02:34:44.536Z,9.2
2019-03-17T02:39:49.973Z,9.2
2019-03-17T02:44:55.250Z,9.2
2019-03-17T02:50:00.628Z,9.3
2019-03-17T02:55:05.833Z,9.2
2019-03-17T03:00:11.161Z,9.1
2019-03-17T03:05:16.350Z,9
2019-03-17T03:10:21.585Z,9
2019-03-17T03:15:26.862Z,8.9
2019-03-17T03:20:32.512Z,8.9
2019-03-17T03:25:37.617Z,8.8
2019-03-17T03:30:42.935Z,8.7
2019-03-17T03:35:46.774Z,8.6
2019-03-17T03:40:52.314Z,8.5
2019-03-17T03:45:57.444Z,8.5
2019-03-17T03:51:02.586Z,8.5
2019-03-17T03:56:07.723Z,8.4
2019-03-17T04:01:12.969Z,8.4
2019-03-17T04:06:28.460Z,8.3
2019-03-17T04:11:23.813Z,8.3
2019-03-17T04:16:28.932Z,8.3
2019-03-17T04:21:34.475Z,8.3
2019-03-17T04:26:39.829Z,8.4
2019-03-17T04:31:45.187Z,8.4
2019-03-17T04:36:50.332Z,8.3
2019-03-17T04:41:56.312Z,8.2
2019-03-17T04:47:01.781Z,8.2
2019-03-17T04:52:06.919Z,8.2
2019-03-17T04:57:12.024Z,8.1
2019-03-17T05:02:15.673Z,8.1
2019-03-17T05:07:20.753Z,8.1
2019-03-17T05:12:26.118Z,8
2019-03-17T05:17:31.262Z,7.9
2019-03-17T05:22:36.392Z,7.8
2019-03-17T05:27:41.471Z,7.9
2019-03-17T05:37:50.368Z,8.3
2019-03-17T05:42:55.934Z,8.5
2019-03-17T05:48:01.585Z,8.9
2019-03-17T05:53:06.912Z,8.9
2019-03-17T05:58:12.148Z,9.2
2019-03-17T06:03:17.328Z,9.4
2019-03-17T06:08:22.710Z,9.6
2019-03-17T06:13:28.049Z,9.9
2019-03-17T06:18:33.207Z,10.3
2019-03-17T06:23:38.480Z,10.6
2019-03-17T06:28:43.860Z,10.9
2019-03-17T06:33:47.671Z,11.4
2019-03-17T06:38:53.021Z,11.8
2019-03-17T06:43:59.040Z,12.7
2019-03-17T06:49:07.436Z,12.6
2019-03-17T06:54:12.710Z,13.3
2019-03-17T06:59:19.486Z,14.2
2019-03-17T07:04:24.715Z,14.2
2019-03-17T07:09:29.843Z,14.8
2019-03-17T07:14:34.997Z,15.4
2019-03-17T07:19:40.085Z,15.8
2019-03-17T07:24:43.704Z,16.2
2019-03-17T07:29:51.320Z,17.4
2019-03-17T07:34:56.920Z,17.3
2019-03-17T07:40:04.870Z,18.1
2019-03-17T07:45:10.253Z,18.7
2019-03-17T07:50:15.428Z,19.7
2019-03-17T07:55:20.664Z,21.2
2019-03-17T08:05:28.409Z,22.3
2019-03-17T08:10:33.474Z,23.5
2019-03-17T08:15:38.900Z,24
2019-03-17T08:20:44.081Z,23.5
2019-03-17T08:25:49.325Z,24.7
2019-03-17T08:30:55.629Z,26.4
2019-03-17T08:36:00.956Z,26.4
2019-03-17T08:41:05.999Z,25.7
2019-03-17T08:46:11.306Z,25.5
2019-03-17T08:51:16.729Z,26.3
2019-03-17T08:56:21.995Z,26.6
2019-03-17T09:01:27.485Z,26.6
2019-03-17T09:06:33.136Z,25.9
2019-03-17T09:11:38.272Z,24.6
2019-03-17T09:16:43.584Z,24.1
2019-03-17T09:21:48.700Z,24.8
2019-03-17T09:26:54.092Z,25.3
2019-03-17T09:31:59.332Z,24.9
2019-03-17T09:37:04.740Z,25.6
2019-03-17T09:42:12.872Z,27.5
2019-03-17T09:47:18.076Z,27.4
2019-03-17T09:52:23.115Z,27.3
2019-03-17T09:57:28.616Z,27.6
2019-03-17T10:02:33.768Z,27.5
2019-03-17T10:07:38.845Z,27.8
2019-03-17T10:12:44.218Z,27.2
2019-03-17T10:17:49.503Z,26.7
2019-03-17T10:22:54.774Z,27.3
2019-03-17T10:27:59.933Z,28.5
2019-03-17T10:33:04.946Z,28.7
2019-03-17T10:38:10.282Z,29.7
2019-03-17T10:48:19.373Z,28.5
2019-03-17T10:53:24.456Z,28.3
2019-03-17T10:58:29.705Z,27.9
2019-03-17T11:03:34.646Z,28.9
2019-03-17T11:08:39.901Z,30
2019-03-17T11:13:45.074Z,30.6
2019-03-17T11:18:50.394Z,29.3
2019-03-17T11:23:55.754Z,29.2
2019-03-17T11:29:01.265Z,29.1
2019-03-17T11:34:06.621Z,29.6
2019-03-17T11:39:11.960Z,30.1
2019-03-17T11:44:17.249Z,29.4
2019-03-17T11:49:22.881Z,30.5
2019-03-17T11:54:28.095Z,30.5
2019-03-17T11:59:33.421Z,30.5
2019-03-17T12:04:38.448Z,30.7
2019-03-17T12:09:52.056Z,31.1
2019-03-17T12:14:47.578Z,31.3
2019-03-17T12:19:52.885Z,31.2
2019-03-17T12:24:58.219Z,30.6
2019-03-17T12:30:02.364Z,29.5
2019-03-17T12:35:07.734Z,29.3
2019-03-17T12:45:17.566Z,30.6
2019-03-17T12:50:22.818Z,31.4
2019-03-17T12:55:28.305Z,31
2019-03-17T13:00:33.529Z,31
2019-03-17T13:05:38.975Z,30.3
2019-03-17T13:10:44.639Z,29.8
2019-03-17T13:15:49.736Z,29.3
2019-03-17T13:20:54.960Z,27.3
2019-03-17T13:26:00.250Z,25.8
2019-03-17T13:31:06.305Z,24.6
2019-03-17T13:36:11.758Z,24.5
2019-03-17T13:41:17.209Z,24.1
2019-03-17T13:46:22.318Z,23.6
2019-03-17T13:51:28.536Z,23
2019-03-17T13:56:34.922Z,22.9
2019-03-17T14:01:40.028Z,22.8
2019-03-17T14:06:44.934Z,22.7
2019-03-17T14:11:50.139Z,22.5
2019-03-17T14:16:55.570Z,22.4
2019-03-17T14:21:59.403Z,22.3
2019-03-17T14:27:04.771Z,22.2
2019-03-17T14:32:13.040Z,22.2
2019-03-17T14:37:16.721Z,22.2
2019-03-17T14:42:22.083Z,22.2
2019-03-17T14:47:30.342Z,22
2019-03-17T14:52:49.976Z,21.9
2019-03-17T14:57:51.141Z,21.9
2019-03-17T15:02:50.981Z,21.9
2019-03-17T15:07:56.396Z,21.9
2019-03-17T15:13:08.414Z,21.8
2019-03-17T15:18:05.301Z,21.8
2019-03-17T15:23:10.820Z,21.8
2019-03-17T15:28:15.993Z,21.9
2019-03-17T15:33:21.582Z,21.9
2019-03-17T15:38:26.889Z,21.9
2019-03-17T15:43:32.342Z,21.8
2019-03-17T15:48:37.356Z,21.8
2019-03-17T15:53:42.796Z,21.8
2019-03-17T15:58:48.043Z,21.7
2019-03-17T16:03:53.624Z,21.6
2019-03-17T16:08:59.071Z,21.5
2019-03-17T16:14:04.737Z,21.4
2019-03-17T16:19:09.882Z,21.3
2019-03-17T16:24:13.618Z,21.3
2019-03-17T16:29:18.659Z,21.2
2019-03-17T16:34:22.499Z,21.1
2019-03-17T16:39:26.715Z,21
2019-03-17T16:44:32.111Z,20.9
2019-03-17T16:49:37.069Z,20.8
2019-03-17T16:54:42.707Z,20.7
2019-03-17T16:59:48.071Z,20.5
2019-03-17T17:04:53.529Z,20.3
2019-03-17T17:10:13.105Z,20.1
2019-03-17T17:14:59.985Z,20.1
2019-03-17T17:20:03.478Z,20
2019-03-17T17:25:08.643Z,19.8
2019-03-17T17:35:18.748Z,19.2
2019-03-17T17:40:23.960Z,19.2
2019-03-17T17:45:29.263Z,19.1
2019-03-17T17:50:34.320Z,18.9
2019-03-17T17:55:47.411Z,18.7
2019-03-17T18:00:42.436Z,18.7
2019-03-17T18:05:47.356Z,18.6
2019-03-17T18:10:54.586Z,18.3
2019-03-17T18:16:00.944Z,18.2
2019-03-17T18:21:06.469Z,18.2
2019-03-17T18:26:11.809Z,18
2019-03-17T18:31:17.669Z,17.9
2019-03-17T18:36:23.387Z,17.8
2019-03-17T18:41:28.856Z,17.7
2019-03-17T18:51:37.845Z,17.5
2019-03-17T18:56:41.959Z,17.4
2019-03-17T19:01:47.110Z,17.3
2019-03-17T19:06:52.858Z,17.1
2019-03-17T19:11:57.975Z,17.1
2019-03-17T19:17:07.208Z,16.9
2019-03-17T19:22:12.386Z,16.9
2019-03-17T19:27:17.534Z,16.8
2019-03-17T19:32:23.057Z,16.7
2019-03-17T19:37:28.638Z,16.6
2019-03-17T19:42:34.046Z,16.6
2019-03-17T19:47:39.427Z,16.5
2019-03-17T19:52:44.536Z,16.3
2019-03-17T19:57:50.249Z,16.1
2019-03-17T20:02:55.646Z,16.1
2019-03-17T20:08:00.803Z,16
2019-03-17T20:13:13.469Z,15.8
2019-03-17T20:18:08.852Z,15.8
2019-03-17T20:23:12.299Z,15.7
2019-03-17T20:28:17.665Z,15.6
2019-03-17T20:33:23.268Z,15.4
2019-03-17T20:38:28.998Z,15.4
2019-03-17T20:43:36.922Z,14.9
2019-03-17T20:48:42.028Z,14.9
2019-03-17T20:53:47.096Z,14.8
2019-03-17T20:58:52.865Z,14.8
2019-03-17T21:03:58.212Z,14.7
2019-03-17T21:09:03.478Z,14.8
2019-03-17T21:14:09.092Z,14.8
2019-03-17T21:19:14.336Z,14.9
2019-03-17T21:24:19.872Z,14.9
2019-03-17T21:29:25.155Z,14.9
2019-03-17T21:34:30.247Z,14.8
2019-03-17T21:39:38.233Z,14.7
2019-03-17T21:44:43.517Z,14.6
2019-03-17T21:49:48.716Z,14.5
2019-03-17T21:54:54.337Z,14.4
2019-03-17T21:59:59.671Z,14.2
2019-03-17T22:05:04.861Z,14
2019-03-17T22:10:10.091Z,13.8
2019-03-17T22:15:16.336Z,13.5
2019-03-17T22:20:21.573Z,13.2
2019-03-17T22:25:26.911Z,13
2019-03-17T22:30:27.069Z,13
2019-03-17T22:35:32.102Z,13.1
2019-03-17T22:40:35.950Z,13.1
2019-03-17T22:45:41.105Z,13.2
2019-03-17T22:50:46.239Z,13.3
2019-03-17T22:55:51.707Z,13.4
2019-03-17T23:00:57.021Z,13.6
2019-03-17T23:06:02.147Z,13.7
2019-03-17T23:11:07.218Z,13.7
2019-03-17T23:16:12.254Z,13.6
2019-03-17T23:21:17.489Z,13.5
2019-03-17T23:26:22.632Z,13.5
2019-03-17T23:31:26.518Z,13.4
2019-03-17T23:36:32.228Z,13.2
2019-03-17T23:41:37.821Z,13.2
2019-03-17T23:46:44.528Z,13.1
2019-03-17T23:51:49.802Z,13
2019-03-17T23:56:55.043Z,12.9
